sensor_id;sensor_type;location;lat;lon;timestamp;pressure;altitude;pressure_sealevel;temperature
75431;BMP280;64127;51.488;5.462;2024-03-02T00:02:11;99581.09;;;11.84
75431;BMP280;64127;51.488;5.462;2024-03-02T00:04:45;99559.81;;;11.68
75431;BMP280;64127;51.488;5.462;2024-03-02T00:07:17;99595.06;;;11.83
75431;BMP280;64127;51.488;5.462;2024-03-02T00:09:53;99625.72;;;11.84
75431;BMP280;64127;51.488;5.462;2024-03-02T00:12:26;99656.91;;;11.67
75431;BMP280;64127;51.488;5.462;2024-03-02T00:14:59;99684.78;;;11.62
75431;BMP280;64127;51.488;5.462;2024-03-02T00:17:34;99670.34;;;11.36
75431;BMP280;64127;51.488;5.462;2024-03-02T00:20:10;99706.59;;;11.13
75431;BMP280;64127;51.488;5.462;2024-03-02T00:22:42;99682.47;;;10.86
75431;BMP280;64127;51.488;5.462;2024-03-02T00:25:14;99718.13;;;10.78
75431;BMP280;64127;51.488;5.462;2024-03-02T00:27:48;99695.16;;;10.66
75431;BMP280;64127;51.488;5.462;2024-03-02T00:31:04;99709.84;;;10.59
75431;BMP280;64127;51.488;5.462;2024-03-02T00:33:45;99705.50;;;10.60
75431;BMP280;64127;51.488;5.462;2024-03-02T00:36:26;99671.03;;;10.40
75431;BMP280;64127;51.488;5.462;2024-03-02T00:38:59;99699.84;;;10.40
75431;BMP280;64127;51.488;5.462;2024-03-02T00:41:32;99723.66;;;10.52
75431;BMP280;64127;51.488;5.462;2024-03-02T00:44:06;99714.03;;;10.50
75431;BMP280;64127;51.488;5.462;2024-03-02T00:46:42;99707.81;;;10.46
75431;BMP280;64127;51.488;5.462;2024-03-02T00:49:21;99716.53;;;10.45
75431;BMP280;64127;51.488;5.462;2024-03-02T00:51:54;99688.31;;;10.32
75431;BMP280;64127;51.488;5.462;2024-03-02T00:54:27;99721.81;;;10.48
75431;BMP280;64127;51.488;5.462;2024-03-02T00:57:00;99722.72;;;10.49
75431;BMP280;64127;51.488;5.462;2024-03-02T00:59:33;99721.81;;;10.47
75431;BMP280;64127;51.488;5.462;2024-03-02T01:02:05;99716.69;;;10.53
75431;BMP280;64127;51.488;5.462;2024-03-02T01:04:37;99716.66;;;10.51
75431;BMP280;64127;51.488;5.462;2024-03-02T01:07:09;99716.66;;;10.51
75431;BMP280;64127;51.488;5.462;2024-03-02T01:09:41;99727.13;;;10.51
75431;BMP280;64127;51.488;5.462;2024-03-02T01:12:13;99718.44;;;10.52
75431;BMP280;64127;51.488;5.462;2024-03-02T01:14:45;99713.25;;;10.55
75431;BMP280;64127;51.488;5.462;2024-03-02T01:17:18;99724.69;;;10.59
75431;BMP280;64127;51.488;5.462;2024-03-02T01:19:50;99689.50;;;10.46
75431;BMP280;64127;51.488;5.462;2024-03-02T01:22:23;99714.31;;;10.63
75431;BMP280;64127;51.488;5.462;2024-03-02T01:24:57;99711.75;;;10.66
75431;BMP280;64127;51.488;5.462;2024-03-02T01:27:29;99717.00;;;10.66
75431;BMP280;64127;51.488;5.462;2024-03-02T01:30:01;99719.66;;;10.68
75431;BMP280;64127;51.488;5.462;2024-03-02T01:32:33;99727.47;;;10.66
75431;BMP280;64127;51.488;5.462;2024-03-02T01:35:06;99691.34;;;10.50
75431;BMP280;64127;51.488;5.462;2024-03-02T01:37:39;99731.00;;;10.68
75431;BMP280;64127;51.488;5.462;2024-03-02T01:40:11;99729.25;;;10.67
75431;BMP280;64127;51.488;5.462;2024-03-02T01:42:44;99711.41;;;10.50
75431;BMP280;64127;51.488;5.462;2024-03-02T01:45:16;99733.47;;;10.61
75431;BMP280;64127;51.488;5.462;2024-03-02T01:47:49;99726.50;;;10.61
75431;BMP280;64127;51.488;5.462;2024-03-02T01:50:29;99713.31;;;10.58
75431;BMP280;64127;51.488;5.462;2024-03-02T01:53:02;99734.38;;;10.61
75431;BMP280;64127;51.488;5.462;2024-03-02T01:55:35;99708.66;;;10.44
75431;BMP280;64127;51.488;5.462;2024-03-02T01:58:07;99734.28;;;10.58
75431;BMP280;64127;51.488;5.462;2024-03-02T02:00:39;99739.50;;;10.58
75431;BMP280;64127;51.488;5.462;2024-03-02T02:03:11;99742.13;;;10.57
75431;BMP280;64127;51.488;5.462;2024-03-02T02:05:44;99733.38;;;10.56
75431;BMP280;64127;51.488;5.462;2024-03-02T02:08:16;99721.06;;;10.52
75431;BMP280;64127;51.488;5.462;2024-03-02T02:10:48;99717.59;;;10.53
75431;BMP280;64127;51.488;5.462;2024-03-02T02:13:21;99734.19;;;10.54
75431;BMP280;64127;51.488;5.462;2024-03-02T02:15:53;99732.38;;;10.51
75431;BMP280;64127;51.488;5.462;2024-03-02T02:18:25;99726.16;;;10.46
75431;BMP280;64127;51.488;5.462;2024-03-02T02:20:58;99727.06;;;10.48
75431;BMP280;64127;51.488;5.462;2024-03-02T02:23:30;99726.16;;;10.46
75431;BMP280;64127;51.488;5.462;2024-03-02T02:26:02;99723.53;;;10.46
75431;BMP280;64127;51.488;5.462;2024-03-02T02:28:35;99734.00;;;10.46
75431;BMP280;64127;51.488;5.462;2024-03-02T02:31:07;99721.81;;;10.47
75431;BMP280;64127;51.488;5.462;2024-03-02T02:33:40;99722.72;;;10.49
75431;BMP280;64127;51.488;5.462;2024-03-02T02:36:12;99728.00;;;10.50
75431;BMP280;64127;51.488;5.462;2024-03-02T02:38:47;99717.47;;;10.49
75431;BMP280;64127;51.488;5.462;2024-03-02T02:41:20;99713.84;;;10.42
75431;BMP280;64127;51.488;5.462;2024-03-02T02:43:53;99718.97;;;10.38
75431;BMP280;64127;51.488;5.462;2024-03-02T02:46:25;99708.50;;;10.38
75431;BMP280;64127;51.488;5.462;2024-03-02T02:48:57;99705.81;;;10.35
75431;BMP280;64127;51.488;5.462;2024-03-02T02:51:29;99736.53;;;10.42
75431;BMP280;64127;51.488;5.462;2024-03-02T02:54:01;99739.13;;;10.40
75431;BMP280;64127;51.488;5.462;2024-03-02T02:56:33;99706.75;;;10.37
75431;BMP280;64127;51.488;5.462;2024-03-02T02:59:05;99690.81;;;10.28
75431;BMP280;64127;51.488;5.462;2024-03-02T03:01:37;99700.19;;;10.18
75431;BMP280;64127;51.488;5.462;2024-03-02T03:04:09;99726.66;;;10.30
75431;BMP280;64127;51.488;5.462;2024-03-02T03:06:41;99710.66;;;10.18
75431;BMP280;64127;51.488;5.462;2024-03-02T03:09:13;99733.81;;;10.37
75431;BMP280;64127;51.488;5.462;2024-03-02T03:11:46;99736.44;;;10.37
75431;BMP280;64127;51.488;5.462;2024-03-02T03:14:18;99738.13;;;10.35
75431;BMP280;64127;51.488;5.462;2024-03-02T03:16:50;99732.78;;;10.31
75431;BMP280;64127;51.488;5.462;2024-03-02T03:19:22;99731.91;;;10.30
75431;BMP280;64127;51.488;5.462;2024-03-02T03:21:54;99719.28;;;10.14
75431;BMP280;64127;51.488;5.462;2024-03-02T03:24:26;99727.38;;;10.23
75431;BMP280;64127;51.488;5.462;2024-03-02T03:26:58;99728.22;;;10.22
75431;BMP280;64127;51.488;5.462;2024-03-02T03:29:30;99737.94;;;10.28
75431;BMP280;64127;51.488;5.462;2024-03-02T03:32:02;99707.88;;;10.12
75431;BMP280;64127;51.488;5.462;2024-03-02T03:34:35;99735.22;;;10.23
75431;BMP280;64127;51.488;5.462;2024-03-02T03:37:07;99748.31;;;10.25
75431;BMP280;64127;51.488;5.462;2024-03-02T03:39:39;99726.03;;;10.06
75431;BMP280;64127;51.488;5.462;2024-03-02T03:42:11;99759.69;;;10.25
75431;BMP280;64127;51.488;5.462;2024-03-02T03:44:44;99747.44;;;10.24
75431;BMP280;64127;51.488;5.462;2024-03-02T03:47:16;99741.38;;;10.25
75431;BMP280;64127;51.488;5.462;2024-03-02T03:49:48;99748.31;;;10.25
75431;BMP280;64127;51.488;5.462;2024-03-02T03:52:20;99759.69;;;10.25
75431;BMP280;64127;51.488;5.462;2024-03-02T03:54:53;99743.91;;;10.22
75431;BMP280;64127;51.488;5.462;2024-03-02T03:57:25;99759.75;;;10.28
75431;BMP280;64127;51.488;5.462;2024-03-02T03:59:57;99755.41;;;10.27
75431;BMP280;64127;51.488;5.462;2024-03-02T04:02:30;99758.09;;;10.30
75431;BMP280;64127;51.488;5.462;2024-03-02T04:05:02;99758.88;;;10.28
75431;BMP280;64127;51.488;5.462;2024-03-02T04:07:37;99762.25;;;10.22
75431;BMP280;64127;51.488;5.462;2024-03-02T04:10:12;99761.41;;;10.23
75431;BMP280;64127;51.488;5.462;2024-03-02T04:12:44;99755.28;;;10.24
75431;BMP280;64127;51.488;5.462;2024-03-02T04:15:17;99759.69;;;10.24
75431;BMP280;64127;51.488;5.462;2024-03-02T04:17:50;99768.38;;;10.23
75431;BMP280;64127;51.488;5.462;2024-03-02T04:20:22;99764.78;;;10.19
75431;BMP280;64127;51.488;5.462;2024-03-02T04:22:54;99764.72;;;10.16
75431;BMP280;64127;51.488;5.462;2024-03-02T04:25:26;99755.09;;;10.15
75431;BMP280;64127;51.488;5.462;2024-03-02T04:27:58;99750.69;;;10.14
75431;BMP280;64127;51.488;5.462;2024-03-02T04:30:31;99729.38;;;9.99
75431;BMP280;64127;51.488;5.462;2024-03-02T04:33:03;99722.34;;;9.98
75431;BMP280;64127;51.488;5.462;2024-03-02T04:35:39;99739.16;;;10.07
75431;BMP280;64127;51.488;5.462;2024-03-02T04:38:11;99754.38;;;10.22
75431;BMP280;64127;51.488;5.462;2024-03-02T04:40:43;99764.94;;;10.25
75431;BMP280;64127;51.488;5.462;2024-03-02T04:43:15;99757.13;;;10.27
75431;BMP280;64127;51.488;5.462;2024-03-02T04:45:48;99765.00;;;10.28
75431;BMP280;64127;51.488;5.462;2024-03-02T04:48:20;99753.56;;;10.23
75431;BMP280;64127;51.488;5.462;2024-03-02T04:50:54;99759.63;;;10.22
75431;BMP280;64127;51.488;5.462;2024-03-02T04:53:26;99768.25;;;10.18
75431;BMP280;64127;51.488;5.462;2024-03-02T04:55:58;99776.97;;;10.17
75431;BMP280;64127;51.488;5.462;2024-03-02T04:58:50;99767.16;;;10.10
75431;BMP280;64127;51.488;5.462;2024-03-02T05:01:22;99776.09;;;10.18
75431;BMP280;64127;51.488;5.462;2024-03-02T05:03:54;99768.38;;;10.23
75431;BMP280;64127;51.488;5.462;2024-03-02T05:06:26;99738.38;;;10.10
75431;BMP280;64127;51.488;5.462;2024-03-02T05:08:58;99774.56;;;10.26
75431;BMP280;64127;51.488;5.462;2024-03-02T05:11:30;99769.25;;;10.23
75431;BMP280;64127;51.488;5.462;2024-03-02T05:14:08;99777.09;;;10.23
75431;BMP280;64127;51.488;5.462;2024-03-02T05:16:41;99781.22;;;10.13
75431;BMP280;64127;51.488;5.462;2024-03-02T05:19:15;99779.28;;;10.06
75431;BMP280;64127;51.488;5.462;2024-03-02T05:21:47;99785.28;;;10.04
75431;BMP280;64127;51.488;5.462;2024-03-02T05:24:20;99786.25;;;10.06
75431;BMP280;64127;51.488;5.462;2024-03-02T05:26:53;99791.47;;;10.06
75431;BMP280;64127;51.488;5.462;2024-03-02T05:29:25;99794.97;;;10.06
75431;BMP280;64127;51.488;5.462;2024-03-02T05:31:57;99798.47;;;10.07
75431;BMP280;64127;51.488;5.462;2024-03-02T05:34:29;99760.63;;;9.93
75431;BMP280;64127;51.488;5.462;2024-03-02T05:37:02;99806.50;;;10.13
75431;BMP280;64127;51.488;5.462;2024-03-02T05:39:34;99806.41;;;10.10
75431;BMP280;64127;51.488;5.462;2024-03-02T05:42:06;99803.81;;;10.10
75431;BMP280;64127;51.488;5.462;2024-03-02T05:44:38;99798.50;;;10.08
75431;BMP280;64127;51.488;5.462;2024-03-02T05:47:10;99807.25;;;10.09
75431;BMP280;64127;51.488;5.462;2024-03-02T05:49:42;99801.81;;;10.01
75431;BMP280;64127;51.488;5.462;2024-03-02T05:52:15;99803.53;;;9.99
75431;BMP280;64127;51.488;5.462;2024-03-02T05:54:47;99793.00;;;9.98
75431;BMP280;64127;51.488;5.462;2024-03-02T05:57:20;99774.38;;;9.86
75431;BMP280;64127;51.488;5.462;2024-03-02T06:00:11;99807.09;;;10.03
75431;BMP280;64127;51.488;5.462;2024-03-02T06:02:43;99816.78;;;10.07
75431;BMP280;64127;51.488;5.462;2024-03-02T06:05:16;99794.03;;;10.03
75431;BMP280;64127;51.488;5.462;2024-03-02T06:07:49;99802.78;;;10.05
75431;BMP280;64127;51.488;5.462;2024-03-02T06:10:21;99810.75;;;10.09
75431;BMP280;64127;51.488;5.462;2024-03-02T06:12:53;99809.06;;;10.11
75431;BMP280;64127;51.488;5.462;2024-03-02T06:15:26;99827.69;;;10.22
75431;BMP280;64127;51.488;5.462;2024-03-02T06:17:58;99787.63;;;9.93
75431;BMP280;64127;51.488;5.462;2024-03-02T06:20:30;99822.13;;;10.10
75431;BMP280;64127;51.488;5.462;2024-03-02T06:23:07;99819.44;;;10.08
75431;BMP280;64127;51.488;5.462;2024-03-02T06:25:39;99823.78;;;10.08
75431;BMP280;64127;51.488;5.462;2024-03-02T06:28:11;99824.69;;;10.08
75431;BMP280;64127;51.488;5.462;2024-03-02T06:30:43;99815.94;;;10.08
75431;BMP280;64127;51.488;5.462;2024-03-02T06:33:15;99819.50;;;10.10
75431;BMP280;64127;51.488;5.462;2024-03-02T06:35:48;99813.41;;;10.11
75431;BMP280;64127;51.488;5.462;2024-03-02T06:38:21;99828.22;;;10.10
75431;BMP280;64127;51.488;5.462;2024-03-02T06:40:52;99795.38;;;9.89
75431;BMP280;64127;51.488;5.462;2024-03-02T06:43:25;99835.97;;;10.06
75431;BMP280;64127;51.488;5.462;2024-03-02T06:45:57;99834.25;;;10.08
75431;BMP280;64127;51.488;5.462;2024-03-02T06:48:29;99842.94;;;10.07
75431;BMP280;64127;51.488;5.462;2024-03-02T06:51:02;99842.94;;;10.07
75431;BMP280;64127;51.488;5.462;2024-03-02T06:53:34;99852.56;;;10.06
75431;BMP280;64127;51.488;5.462;2024-03-02T06:56:07;99838.44;;;10.00
75431;BMP280;64127;51.488;5.462;2024-03-02T06:58:40;99857.88;;;10.09
75431;BMP280;64127;51.488;5.462;2024-03-02T07:01:12;99853.53;;;10.10
75431;BMP280;64127;51.488;5.462;2024-03-02T07:03:44;99860.50;;;10.11
75431;BMP280;64127;51.488;5.462;2024-03-02T07:06:16;99839.06;;;9.91
75431;BMP280;64127;51.488;5.462;2024-03-02T07:08:48;99870.16;;;10.12
75431;BMP280;64127;51.488;5.462;2024-03-02T07:11:20;99870.97;;;10.11
75431;BMP280;64127;51.488;5.462;2024-03-02T07:13:52;99867.78;;;10.21
75431;BMP280;64127;51.488;5.462;2024-03-02T07:16:25;99864.56;;;10.31
75431;BMP280;64127;51.488;5.462;2024-03-02T07:19:01;99848.91;;;10.33
75431;BMP280;64127;51.488;5.462;2024-03-02T07:21:34;99875.38;;;10.43
75431;BMP280;64127;51.488;5.462;2024-03-02T07:24:06;99877.22;;;10.49
75431;BMP280;64127;51.488;5.462;2024-03-02T07:26:41;99873.84;;;10.53
75431;BMP280;64127;51.488;5.462;2024-03-02T07:29:16;99850.84;;;10.40
75431;BMP280;64127;51.488;5.462;2024-03-02T07:31:48;99864.22;;;10.52
75431;BMP280;64127;51.488;5.462;2024-03-02T07:34:20;99870.53;;;10.60
75431;BMP280;64127;51.488;5.462;2024-03-02T07:36:53;99861.72;;;10.56
75431;BMP280;64127;51.488;5.462;2024-03-02T07:39:26;99844.91;;;10.48
75431;BMP280;64127;51.488;5.462;2024-03-02T07:41:59;99840.38;;;10.41
75431;BMP280;64127;51.488;5.462;2024-03-02T07:44:31;99878.25;;;10.54
75431;BMP280;64127;51.488;5.462;2024-03-02T07:47:04;99847.25;;;10.36
75431;BMP280;64127;51.488;5.462;2024-03-02T07:49:36;99875.56;;;10.52
75431;BMP280;64127;51.488;5.462;2024-03-02T07:52:08;99878.19;;;10.51
75431;BMP280;64127;51.488;5.462;2024-03-02T07:54:40;99878.97;;;10.48
75431;BMP280;64127;51.488;5.462;2024-03-02T07:57:12;99857.56;;;10.30
75431;BMP280;64127;51.488;5.462;2024-03-02T07:59:44;99874.53;;;10.46
75431;BMP280;64127;51.488;5.462;2024-03-02T08:02:17;99879.94;;;10.52
75431;BMP280;64127;51.488;5.462;2024-03-02T08:04:49;99876.41;;;10.51
75431;BMP280;64127;51.488;5.462;2024-03-02T08:07:22;99885.22;;;10.53
75431;BMP280;64127;51.488;5.462;2024-03-02T08:09:54;99889.75;;;10.60
75431;BMP280;64127;51.488;5.462;2024-03-02T08:12:27;99877.88;;;10.75
75431;BMP280;64127;51.488;5.462;2024-03-02T08:14:59;99878.41;;;10.96
75431;BMP280;64127;51.488;5.462;2024-03-02T08:17:31;99890.16;;;11.14
75431;BMP280;64127;51.488;5.462;2024-03-02T08:20:06;99858.59;;;11.10
75431;BMP280;64127;51.488;5.462;2024-03-02T08:22:40;99892.50;;;11.41
75431;BMP280;64127;51.488;5.462;2024-03-02T08:25:12;99849.63;;;11.39
75431;BMP280;64127;51.488;5.462;2024-03-02T08:27:44;99881.88;;;11.74
75431;BMP280;64127;51.488;5.462;2024-03-02T08:30:17;99896.06;;;11.84
75431;BMP280;64127;51.488;5.462;2024-03-02T08:32:50;99855.66;;;11.76
75431;BMP280;64127;51.488;5.462;2024-03-02T08:35:22;99887.47;;;11.92
75431;BMP280;64127;51.488;5.462;2024-03-02T08:37:55;99888.53;;;12.00
75431;BMP280;64127;51.488;5.462;2024-03-02T08:40:27;99887.69;;;12.03
75431;BMP280;64127;51.488;5.462;2024-03-02T08:42:59;99888.00;;;12.19
75431;BMP280;64127;51.488;5.462;2024-03-02T08:45:31;99884.72;;;12.31
75431;BMP280;64127;51.488;5.462;2024-03-02T08:48:04;99878.81;;;12.44
75431;BMP280;64127;51.488;5.462;2024-03-02T08:50:37;99886.88;;;12.53
75431;BMP280;64127;51.488;5.462;2024-03-02T08:53:09;99880.13;;;12.70
75431;BMP280;64127;51.488;5.462;2024-03-02T08:55:41;99888.13;;;12.77
75431;BMP280;64127;51.488;5.462;2024-03-02T08:58:13;99876.00;;;12.86
75431;BMP280;64127;51.488;5.462;2024-03-02T09:00:47;99889.16;;;12.86
75431;BMP280;64127;51.488;5.462;2024-03-02T09:03:19;99884.00;;;12.92
75431;BMP280;64127;51.488;5.462;2024-03-02T09:05:51;99837.34;;;12.79
75431;BMP280;64127;51.488;5.462;2024-03-02T09:08:24;99877.16;;;13.03
75431;BMP280;64127;51.488;5.462;2024-03-02T09:10:56;99880.69;;;13.04
75431;BMP280;64127;51.488;5.462;2024-03-02T09:13:29;99894.69;;;13.03
75431;BMP280;64127;51.488;5.462;2024-03-02T09:16:02;99887.75;;;13.08
75431;BMP280;64127;51.488;5.462;2024-03-02T09:18:34;99868.44;;;13.07
75431;BMP280;64127;51.488;5.462;2024-03-02T09:21:06;99884.47;;;13.21
75431;BMP280;64127;51.488;5.462;2024-03-02T09:23:39;99877.50;;;13.26
75431;BMP280;64127;51.488;5.462;2024-03-02T09:26:12;99877.47;;;13.23
75431;BMP280;64127;51.488;5.462;2024-03-02T09:28:44;99882.72;;;13.23
75431;BMP280;64127;51.488;5.462;2024-03-02T09:31:16;99873.16;;;13.30
75431;BMP280;64127;51.488;5.462;2024-03-02T09:33:48;99882.19;;;13.47
75431;BMP280;64127;51.488;5.462;2024-03-02T09:36:23;99876.06;;;13.49
75431;BMP280;64127;51.488;5.462;2024-03-02T09:38:55;99877.81;;;13.47
75431;BMP280;64127;51.488;5.462;2024-03-02T09:41:27;99876.19;;;13.58
75431;BMP280;64127;51.488;5.462;2024-03-02T09:44:00;99883.25;;;13.59
75431;BMP280;64127;51.488;5.462;2024-03-02T09:46:32;99873.53;;;13.57
75431;BMP280;64127;51.488;5.462;2024-03-02T09:49:04;99882.38;;;13.62
75431;BMP280;64127;51.488;5.462;2024-03-02T09:51:49;99869.34;;;13.73
75431;BMP280;64127;51.488;5.462;2024-03-02T09:54:22;99866.84;;;13.83
75431;BMP280;64127;51.488;5.462;2024-03-02T09:56:54;99865.09;;;13.85
75431;BMP280;64127;51.488;5.462;2024-03-02T09:59:27;99870.56;;;14.02
75431;BMP280;64127;51.488;5.462;2024-03-02T10:02:02;99868.00;;;14.09
75431;BMP280;64127;51.488;5.462;2024-03-02T10:04:35;99868.81;;;14.02
75431;BMP280;64127;51.488;5.462;2024-03-02T10:07:16;99837.09;;;13.92
75431;BMP280;64127;51.488;5.462;2024-03-02T10:09:49;99861.91;;;14.13
75431;BMP280;64127;51.488;5.462;2024-03-02T10:12:21;99851.41;;;14.18
75431;BMP280;64127;51.488;5.462;2024-03-02T10:15:03;99852.47;;;14.35
75431;BMP280;64127;51.488;5.462;2024-03-02T10:17:36;99844.66;;;14.44
75431;BMP280;64127;51.488;5.462;2024-03-02T10:20:26;99843.91;;;14.57
75431;BMP280;64127;51.488;5.462;2024-03-02T10:23:15;99843.06;;;14.66
75431;BMP280;64127;51.488;5.462;2024-03-02T10:25:48;99838.78;;;14.76
75431;BMP280;64127;51.488;5.462;2024-03-02T10:28:29;99801.75;;;14.62
75431;BMP280;64127;51.488;5.462;2024-03-02T10:31:02;99824.78;;;14.86
75431;BMP280;64127;51.488;5.462;2024-03-02T10:33:34;99838.00;;;14.95
75431;BMP280;64127;51.488;5.462;2024-03-02T10:36:07;99833.72;;;15.09
75431;BMP280;64127;51.488;5.462;2024-03-02T10:38:41;99841.66;;;15.18
75431;BMP280;64127;51.488;5.462;2024-03-02T10:41:18;99801.09;;;14.98
75431;BMP280;64127;51.488;5.462;2024-03-02T10:43:54;99821.38;;;15.08
75431;BMP280;64127;51.488;5.462;2024-03-02T10:46:33;99821.38;;;15.11
75431;BMP280;64127;51.488;5.462;2024-03-02T10:49:05;99812.69;;;15.27
75431;BMP280;64127;51.488;5.462;2024-03-02T10:51:40;99813.59;;;15.35
75431;BMP280;64127;51.488;5.462;2024-03-02T10:54:12;99808.38;;;15.47
75431;BMP280;64127;51.488;5.462;2024-03-02T10:56:46;99813.72;;;15.55
75431;BMP280;64127;51.488;5.462;2024-03-02T10:59:36;99812.84;;;15.54
75431;BMP280;64127;51.488;5.462;2024-03-02T11:02:12;99814.59;;;15.55
75431;BMP280;64127;51.488;5.462;2024-03-02T11:04:47;99808.47;;;15.64
75431;BMP280;64127;51.488;5.462;2024-03-02T11:07:22;99807.59;;;15.66
75431;BMP280;64127;51.488;5.462;2024-03-02T11:10:00;99804.97;;;15.68
75431;BMP280;64127;51.488;5.462;2024-03-02T11:13:12;99811.13;;;15.76
75431;BMP280;64127;51.488;5.462;2024-03-02T11:15:44;99813.81;;;15.82
75431;BMP280;64127;51.488;5.462;2024-03-02T11:18:17;99802.38;;;15.82
75431;BMP280;64127;51.488;5.462;2024-03-02T11:20:49;99803.25;;;15.82
75431;BMP280;64127;51.488;5.462;2024-03-02T11:23:32;99807.66;;;15.94
75431;BMP280;64127;51.488;5.462;2024-03-02T11:26:21;99807.66;;;15.85
75431;BMP280;64127;51.488;5.462;2024-03-02T11:28:55;99815.56;;;15.79
75431;BMP280;64127;51.488;5.462;2024-03-02T11:31:58;99810.25;;;15.69
75431;BMP280;64127;51.488;5.462;2024-03-02T11:34:36;99804.09;;;15.67
75431;BMP280;64127;51.488;5.462;2024-03-02T11:37:12;99793.53;;;15.80
75431;BMP280;64127;51.488;5.462;2024-03-02T11:39:46;99794.44;;;15.94
75431;BMP280;64127;51.488;5.462;2024-03-02T11:42:19;99799.75;;;16.07
75431;BMP280;64127;51.488;5.462;2024-03-02T11:44:51;99790.94;;;16.20
75431;BMP280;64127;51.488;5.462;2024-03-02T11:47:23;99800.66;;;16.26
75431;BMP280;64127;51.488;5.462;2024-03-02T11:49:55;99794.47;;;16.30
75431;BMP280;64127;51.488;5.462;2024-03-02T11:52:28;99793.63;;;16.27
75431;BMP280;64127;51.488;5.462;2024-03-02T11:55:03;99762.75;;;16.15
75431;BMP280;64127;51.488;5.462;2024-03-02T11:57:37;99784.81;;;16.32
75431;BMP280;64127;51.488;5.462;2024-03-02T12:00:17;99747.78;;;16.26
75431;BMP280;64127;51.488;5.462;2024-03-02T12:03:08;99731.91;;;16.35
75431;BMP280;64127;51.488;5.462;2024-03-02T12:05:41;99765.44;;;16.57
75431;BMP280;64127;51.488;5.462;2024-03-02T12:08:14;99758.38;;;16.59
75431;BMP280;64127;51.488;5.462;2024-03-02T12:11:01;99738.94;;;16.51
75431;BMP280;64127;51.488;5.462;2024-03-02T12:13:35;99759.19;;;16.51
75431;BMP280;64127;51.488;5.462;2024-03-02T12:16:07;99746.00;;;16.49
75431;BMP280;64127;51.488;5.462;2024-03-02T12:18:42;99736.34;;;16.57
75431;BMP280;64127;51.488;5.462;2024-03-02T12:21:15;99740.69;;;16.72
75431;BMP280;64127;51.488;5.462;2024-03-02T12:23:47;99724.84;;;16.60
75431;BMP280;64127;51.488;5.462;2024-03-02T12:26:22;99712.50;;;16.45
75431;BMP280;64127;51.488;5.462;2024-03-02T12:28:55;99715.16;;;16.60
75431;BMP280;64127;51.488;5.462;2024-03-02T12:31:27;99726.59;;;16.62
75431;BMP280;64127;51.488;5.462;2024-03-02T12:33:59;99713.38;;;16.50
75431;BMP280;64127;51.488;5.462;2024-03-02T12:36:38;99705.44;;;16.50
75431;BMP280;64127;51.488;5.462;2024-03-02T12:39:11;99716.00;;;16.65
75431;BMP280;64127;51.488;5.462;2024-03-02T12:41:43;99720.44;;;16.66
75431;BMP280;64127;51.488;5.462;2024-03-02T12:44:15;99701.94;;;16.60
75431;BMP280;64127;51.488;5.462;2024-03-02T12:46:47;99708.09;;;16.67
75431;BMP280;64127;51.488;5.462;2024-03-02T12:49:22;99704.53;;;16.71
75431;BMP280;64127;51.488;5.462;2024-03-02T12:51:54;99688.66;;;16.71
75431;BMP280;64127;51.488;5.462;2024-03-02T12:54:26;99708.88;;;16.98
75431;BMP280;64127;51.488;5.462;2024-03-02T12:56:59;99700.00;;;17.08
75431;BMP280;64127;51.488;5.462;2024-03-02T12:59:32;99690.16;;;17.30
75431;BMP280;64127;51.488;5.462;2024-03-02T13:02:04;99690.03;;;17.57
75431;BMP280;64127;51.488;5.462;2024-03-02T13:04:37;99682.88;;;17.68
75431;BMP280;64127;51.488;5.462;2024-03-02T13:07:13;99678.41;;;17.81
75431;BMP280;64127;51.488;5.462;2024-03-02T13:09:46;99671.28;;;17.83
75431;BMP280;64127;51.488;5.462;2024-03-02T13:12:19;99682.81;;;17.79
75431;BMP280;64127;51.488;5.462;2024-03-02T13:14:54;99675.00;;;17.63
75431;BMP280;64127;51.488;5.462;2024-03-02T13:17:27;99677.66;;;17.59
75431;BMP280;64127;51.488;5.462;2024-03-02T13:20:06;99644.16;;;17.44
75431;BMP280;64127;51.488;5.462;2024-03-02T13:22:42;99667.88;;;17.68
75431;BMP280;64127;51.488;5.462;2024-03-02T13:25:14;99654.47;;;17.85
75431;BMP280;64127;51.488;5.462;2024-03-02T13:27:47;99656.19;;;17.94
75431;BMP280;64127;51.488;5.462;2024-03-02T13:30:19;99655.28;;;17.95
75431;BMP280;64127;51.488;5.462;2024-03-02T13:32:51;99632.41;;;17.82
75431;BMP280;64127;51.488;5.462;2024-03-02T13:35:23;99641.22;;;17.87
75431;BMP280;64127;51.488;5.462;2024-03-02T13:37:55;99655.41;;;17.80
75431;BMP280;64127;51.488;5.462;2024-03-02T13:40:27;99648.38;;;17.74
75431;BMP280;64127;51.488;5.462;2024-03-02T13:43:02;99643.16;;;17.66
75431;BMP280;64127;51.488;5.462;2024-03-02T13:45:35;99641.31;;;17.74
75431;BMP280;64127;51.488;5.462;2024-03-02T13:48:08;99637.69;;;17.85
75431;BMP280;64127;51.488;5.462;2024-03-02T13:50:40;99645.50;;;18.04
75431;BMP280;64127;51.488;5.462;2024-03-02T13:53:12;99627.63;;;18.18
75431;BMP280;64127;51.488;5.462;2024-03-02T13:55:45;99603.78;;;18.17
75431;BMP280;64127;51.488;5.462;2024-03-02T13:58:17;99570.25;;;18.13
75431;BMP280;64127;51.488;5.462;2024-03-02T14:00:50;99618.50;;;18.51
75431;BMP280;64127;51.488;5.462;2024-03-02T14:03:23;99619.28;;;18.59
75431;BMP280;64127;51.488;5.462;2024-03-02T14:05:57;99595.50;;;18.50
75431;BMP280;64127;51.488;5.462;2024-03-02T14:08:29;99612.84;;;18.79
75431;BMP280;64127;51.488;5.462;2024-03-02T14:11:01;99600.41;;;18.82
75431;BMP280;64127;51.488;5.462;2024-03-02T14:13:34;99614.53;;;18.86
75431;BMP280;64127;51.488;5.462;2024-03-02T14:16:06;99594.91;;;18.94
75431;BMP280;64127;51.488;5.462;2024-03-02T14:18:39;99604.69;;;18.91
75431;BMP280;64127;51.488;5.462;2024-03-02T14:21:11;99599.56;;;18.79
75431;BMP280;64127;51.488;5.462;2024-03-02T14:23:45;99592.53;;;18.76
75431;BMP280;64127;51.488;5.462;2024-03-02T14:26:17;99590.59;;;18.89
75431;BMP280;64127;51.488;5.462;2024-03-02T14:28:51;99595.59;;;19.08
75431;BMP280;64127;51.488;5.462;2024-03-02T14:31:25;99581.59;;;18.99
75431;BMP280;64127;51.488;5.462;2024-03-02T14:33:58;99567.63;;;18.85
75431;BMP280;64127;51.488;5.462;2024-03-02T14:36:30;99580.59;;;19.06
75431;BMP280;64127;51.488;5.462;2024-03-02T14:39:02;99583.00;;;19.24
75431;BMP280;64127;51.488;5.462;2024-03-02T14:41:37;99578.44;;;19.32
75431;BMP280;64127;51.488;5.462;2024-03-02T14:44:09;99586.88;;;19.61
75431;BMP280;64127;51.488;5.462;2024-03-02T14:46:41;99587.75;;;19.60